sensor_id;sensor_type;location;lat;lon;timestamp;temperature;humidity
48575;DHT22;34352;51.084;3.712;2024-03-02T01:48:34;6.20;99.80
48575;DHT22;34352;51.084;3.712;2024-03-02T02:15:36;6.20;99.70
48575;DHT22;34352;51.084;3.712;2024-03-02T03:12:53;6.20;97.60
48575;DHT22;34352;51.084;3.712;2024-03-02T04:22:27;5.90;98.30
48575;DHT22;34352;51.084;3.712;2024-03-02T04:24:58;5.90;97.70
48575;DHT22;34352;51.084;3.712;2024-03-02T04:27:49;5.90;97.40
48575;DHT22;34352;51.084;3.712;2024-03-02T04:30:18;5.20;97.80
48575;DHT22;34352;51.084;3.712;2024-03-02T04:35:40;6.00;98.30
48575;DHT22;34352;51.084;3.712;2024-03-02T06:49:08;5.70;98.80
48575;DHT22;34352;51.084;3.712;2024-03-02T06:51:43;5.90;98.90
48575;DHT22;34352;51.084;3.712;2024-03-02T07:35:26;7.90;96.40
48575;DHT22;34352;51.084;3.712;2024-03-02T07:38:02;8.30;92.30
48575;DHT22;34352;51.084;3.712;2024-03-02T07:41:02;8.60;86.40
48575;DHT22;34352;51.084;3.712;2024-03-02T07:43:32;8.80;81.30
48575;DHT22;34352;51.084;3.712;2024-03-02T07:46:17;8.70;79.80
48575;DHT22;34352;51.084;3.712;2024-03-02T07:48:51;8.40;82.60
48575;DHT22;34352;51.084;3.712;2024-03-02T07:51:37;8.30;81.40
48575;DHT22;34352;51.084;3.712;2024-03-02T07:54:21;8.30;81.80
48575;DHT22;34352;51.084;3.712;2024-03-02T07:56:48;8.30;80.20
48575;DHT22;34352;51.084;3.712;2024-03-02T07:59:19;8.70;81.70
48575;DHT22;34352;51.084;3.712;2024-03-02T08:01:44;8.90;78.00
48575;DHT22;34352;51.084;3.712;2024-03-02T08:04:13;9.00;72.70
48575;DHT22;34352;51.084;3.712;2024-03-02T08:06:45;9.10;73.60
48575;DHT22;34352;51.084;3.712;2024-03-02T08:09:10;9.50;71.80
48575;DHT22;34352;51.084;3.712;2024-03-02T08:11:43;9.50;69.90
48575;DHT22;34352;51.084;3.712;2024-03-02T08:14:09;10.00;66.10
48575;DHT22;34352;51.084;3.712;2024-03-02T08:16:38;10.60;65.30
48575;DHT22;34352;51.084;3.712;2024-03-02T08:19:04;11.20;61.30
48575;DHT22;34352;51.084;3.712;2024-03-02T08:21:49;11.70;42.30
48575;DHT22;34352;51.084;3.712;2024-03-02T08:24:15;11.70;1.00
48575;DHT22;34352;51.084;3.712;2024-03-02T08:26:43;11.70;1.00
48575;DHT22;34352;51.084;3.712;2024-03-02T08:29:08;12.10;1.00
48575;DHT22;34352;51.084;3.712;2024-03-02T08:31:40;12.00;1.00
48575;DHT22;34352;51.084;3.712;2024-03-02T08:34:06;12.30;1.00
48575;DHT22;34352;51.084;3.712;2024-03-02T08:36:35;12.50;1.00
48575;DHT22;34352;51.084;3.712;2024-03-02T08:39:27;12.60;1.00
48575;DHT22;34352;51.084;3.712;2024-03-02T08:41:55;12.90;1.00
48575;DHT22;34352;51.084;3.712;2024-03-02T08:44:32;13.00;1.00
48575;DHT22;34352;51.084;3.712;2024-03-02T08:46:59;12.80;1.00
48575;DHT22;34352;51.084;3.712;2024-03-02T08:49:29;12.80;1.00
48575;DHT22;34352;51.084;3.712;2024-03-02T08:51:55;12.70;1.00
48575;DHT22;34352;51.084;3.712;2024-03-02T08:54:22;12.40;1.00
48575;DHT22;34352;51.084;3.712;2024-03-02T08:56:49;11.70;1.00
48575;DHT22;34352;51.084;3.712;2024-03-02T09:02:35;10.70;1.00
48575;DHT22;34352;51.084;3.712;2024-03-02T09:05:08;10.20;3.10
48575;DHT22;34352;51.084;3.712;2024-03-02T09:07:39;9.80;10.30
48575;DHT22;34352;51.084;3.712;2024-03-02T09:10:06;10.00;20.80
48575;DHT22;34352;51.084;3.712;2024-03-02T09:12:33;10.30;17.00
48575;DHT22;34352;51.084;3.712;2024-03-02T09:15:08;10.70;7.50
48575;DHT22;34352;51.084;3.712;2024-03-02T09:17:34;10.90;1.00
48575;DHT22;34352;51.084;3.712;2024-03-02T09:20:00;11.40;1.00
48575;DHT22;34352;51.084;3.712;2024-03-02T09:22:33;11.90;1.00
48575;DHT22;34352;51.084;3.712;2024-03-02T09:25:10;11.80;1.00
48575;DHT22;34352;51.084;3.712;2024-03-02T09:27:39;11.40;1.00
48575;DHT22;34352;51.084;3.712;2024-03-02T09:30:08;11.20;1.00
48575;DHT22;34352;51.084;3.712;2024-03-02T09:32:36;10.60;1.00
48575;DHT22;34352;51.084;3.712;2024-03-02T09:35:03;10.50;1.00
48575;DHT22;34352;51.084;3.712;2024-03-02T09:37:42;10.50;2.80
48575;DHT22;34352;51.084;3.712;2024-03-02T09:40:08;11.30;1.00
48575;DHT22;34352;51.084;3.712;2024-03-02T09:42:34;12.40;1.00
48575;DHT22;34352;51.084;3.712;2024-03-02T09:45:12;13.10;1.00
48575;DHT22;34352;51.084;3.712;2024-03-02T09:47:40;13.80;1.00
48575;DHT22;34352;51.084;3.712;2024-03-02T09:50:09;14.60;1.00
48575;DHT22;34352;51.084;3.712;2024-03-02T09:52:37;14.90;1.00
48575;DHT22;34352;51.084;3.712;2024-03-02T09:55:15;15.30;1.00
48575;DHT22;34352;51.084;3.712;2024-03-02T09:57:48;15.40;1.00
48575;DHT22;34352;51.084;3.712;2024-03-02T10:00:15;15.10;1.00
48575;DHT22;34352;51.084;3.712;2024-03-02T10:02:42;14.90;1.00
48575;DHT22;34352;51.084;3.712;2024-03-02T10:05:10;14.70;1.00
48575;DHT22;34352;51.084;3.712;2024-03-02T10:10:59;13.60;1.00
48575;DHT22;34352;51.084;3.712;2024-03-02T10:13:30;12.90;1.00
48575;DHT22;34352;51.084;3.712;2024-03-02T10:16:11;13.60;1.00
48575;DHT22;34352;51.084;3.712;2024-03-02T10:18:42;13.50;1.00
48575;DHT22;34352;51.084;3.712;2024-03-02T10:21:15;13.90;1.00
48575;DHT22;34352;51.084;3.712;2024-03-02T10:23:41;14.00;1.00
48575;DHT22;34352;51.084;3.712;2024-03-02T10:26:19;14.00;1.00
48575;DHT22;34352;51.084;3.712;2024-03-02T10:28:48;13.90;1.00
48575;DHT22;34352;51.084;3.712;2024-03-02T10:31:16;14.10;1.00
48575;DHT22;34352;51.084;3.712;2024-03-02T10:33:42;14.10;1.00
48575;DHT22;34352;51.084;3.712;2024-03-02T10:36:08;13.80;1.00
48575;DHT22;34352;51.084;3.712;2024-03-02T10:38:40;13.40;1.00
48575;DHT22;34352;51.084;3.712;2024-03-02T10:41:07;13.30;1.00
48575;DHT22;34352;51.084;3.712;2024-03-02T10:43:34;13.00;1.00
48575;DHT22;34352;51.084;3.712;2024-03-02T10:45:59;12.70;1.00
48575;DHT22;34352;51.084;3.712;2024-03-02T10:48:36;12.30;1.00
48575;DHT22;34352;51.084;3.712;2024-03-02T10:51:05;12.00;1.00
48575;DHT22;34352;51.084;3.712;2024-03-02T10:53:36;11.70;1.00
48575;DHT22;34352;51.084;3.712;2024-03-02T10:56:04;11.50;1.00
48575;DHT22;34352;51.084;3.712;2024-03-02T10:58:33;11.50;1.00
48575;DHT22;34352;51.084;3.712;2024-03-02T11:01:11;11.70;1.00
48575;DHT22;34352;51.084;3.712;2024-03-02T11:03:38;11.90;1.00
48575;DHT22;34352;51.084;3.712;2024-03-02T11:06:07;12.50;1.00
48575;DHT22;34352;51.084;3.712;2024-03-02T11:08:37;13.20;1.00
48575;DHT22;34352;51.084;3.712;2024-03-02T11:11:13;13.70;1.00
48575;DHT22;34352;51.084;3.712;2024-03-02T11:14:01;13.80;1.00
48575;DHT22;34352;51.084;3.712;2024-03-02T11:16:40;14.10;1.00
48575;DHT22;34352;51.084;3.712;2024-03-02T11:19:13;13.80;1.00
48575;DHT22;34352;51.084;3.712;2024-03-02T11:21:41;13.80;1.00
48575;DHT22;34352;51.084;3.712;2024-03-02T11:24:29;13.90;1.00
48575;DHT22;34352;51.084;3.712;2024-03-02T11:27:06;13.80;1.00
48575;DHT22;34352;51.084;3.712;2024-03-02T11:29:42;13.60;1.00
48575;DHT22;34352;51.084;3.712;2024-03-02T11:32:16;13.40;1.00
48575;DHT22;34352;51.084;3.712;2024-03-02T11:34:47;12.90;1.00
48575;DHT22;34352;51.084;3.712;2024-03-02T11:37:16;12.90;1.00
48575;DHT22;34352;51.084;3.712;2024-03-02T11:40:00;12.90;1.00
48575;DHT22;34352;51.084;3.712;2024-03-02T11:42:40;13.00;1.00
48575;DHT22;34352;51.084;3.712;2024-03-02T11:45:08;13.50;1.00
48575;DHT22;34352;51.084;3.712;2024-03-02T11:47:59;13.50;1.00
48575;DHT22;34352;51.084;3.712;2024-03-02T11:50:50;13.40;1.00
48575;DHT22;34352;51.084;3.712;2024-03-02T11:53:16;13.20;1.00
48575;DHT22;34352;51.084;3.712;2024-03-02T11:55:44;13.10;1.00
48575;DHT22;34352;51.084;3.712;2024-03-02T11:58:17;13.10;1.00
48575;DHT22;34352;51.084;3.712;2024-03-02T12:00:47;12.90;1.00
48575;DHT22;34352;51.084;3.712;2024-03-02T12:03:13;12.60;1.00
48575;DHT22;34352;51.084;3.712;2024-03-02T12:05:39;12.50;1.00
48575;DHT22;34352;51.084;3.712;2024-03-02T12:08:18;12.30;1.00
48575;DHT22;34352;51.084;3.712;2024-03-02T12:10:56;12.20;1.00
48575;DHT22;34352;51.084;3.712;2024-03-02T12:13:33;12.00;1.00
48575;DHT22;34352;51.084;3.712;2024-03-02T12:16:05;11.90;1.00
48575;DHT22;34352;51.084;3.712;2024-03-02T12:21:26;11.80;1.00
48575;DHT22;34352;51.084;3.712;2024-03-02T12:23:56;11.80;1.00
48575;DHT22;34352;51.084;3.712;2024-03-02T12:29:56;11.50;7.10
48575;DHT22;34352;51.084;3.712;2024-03-02T12:32:23;11.50;9.30
48575;DHT22;34352;51.084;3.712;2024-03-02T12:34:57;11.60;10.60
48575;DHT22;34352;51.084;3.712;2024-03-02T12:37:28;11.50;18.90
48575;DHT22;34352;51.084;3.712;2024-03-02T12:39:59;11.60;14.10
48575;DHT22;34352;51.084;3.712;2024-03-02T12:42:35;11.60;13.50
48575;DHT22;34352;51.084;3.712;2024-03-02T12:45:15;11.50;21.80
48575;DHT22;34352;51.084;3.712;2024-03-02T12:48:12;11.40;23.60
48575;DHT22;34352;51.084;3.712;2024-03-02T12:50:41;11.40;29.30
48575;DHT22;34352;51.084;3.712;2024-03-02T12:53:15;11.30;33.30
48575;DHT22;34352;51.084;3.712;2024-03-02T12:55:42;11.30;34.30
48575;DHT22;34352;51.084;3.712;2024-03-02T13:01:10;11.00;43.80
48575;DHT22;34352;51.084;3.712;2024-03-02T13:03:41;11.00;52.70
48575;DHT22;34352;51.084;3.712;2024-03-02T13:06:20;10.90;51.90
48575;DHT22;34352;51.084;3.712;2024-03-02T13:08:55;10.70;60.90
48575;DHT22;34352;51.084;3.712;2024-03-02T13:11:23;10.70;67.10
48575;DHT22;34352;51.084;3.712;2024-03-02T13:14:05;10.60;73.60
48575;DHT22;34352;51.084;3.712;2024-03-02T13:16:39;10.60;73.80
48575;DHT22;34352;51.084;3.712;2024-03-02T13:22:09;10.60;79.50
48575;DHT22;34352;51.084;3.712;2024-03-02T13:24:39;10.60;81.20
48575;DHT22;34352;51.084;3.712;2024-03-02T13:27:20;10.60;82.50
48575;DHT22;34352;51.084;3.712;2024-03-02T13:29:47;10.60;85.90
48575;DHT22;34352;51.084;3.712;2024-03-02T13:32:15;10.60;89.50
48575;DHT22;34352;51.084;3.712;2024-03-02T13:34:52;10.50;86.30
48575;DHT22;34352;51.084;3.712;2024-03-02T13:37:18;10.50;89.50
48575;DHT22;34352;51.084;3.712;2024-03-02T13:39:44;10.60;92.60
48575;DHT22;34352;51.084;3.712;2024-03-02T13:42:17;10.50;95.20
48575;DHT22;34352;51.084;3.712;2024-03-02T13:44:48;10.80;93.30
48575;DHT22;34352;51.084;3.712;2024-03-02T13:47:28;10.80;92.60
48575;DHT22;34352;51.084;3.712;2024-03-02T13:49:54;10.90;92.00
48575;DHT22;34352;51.084;3.712;2024-03-02T13:52:28;10.90;90.10
48575;DHT22;34352;51.084;3.712;2024-03-02T13:54:56;10.80;90.20
48575;DHT22;34352;51.084;3.712;2024-03-02T13:57:24;10.80;90.70
48575;DHT22;34352;51.084;3.712;2024-03-02T13:59:50;10.80;90.70
48575;DHT22;34352;51.084;3.712;2024-03-02T14:02:17;10.70;90.00
48575;DHT22;34352;51.084;3.712;2024-03-02T14:04:45;10.60;92.10
48575;DHT22;34352;51.084;3.712;2024-03-02T14:07:15;10.70;92.90
48575;DHT22;34352;51.084;3.712;2024-03-02T14:09:41;10.70;92.60
48575;DHT22;34352;51.084;3.712;2024-03-02T14:12:07;10.90;92.60
48575;DHT22;34352;51.084;3.712;2024-03-02T14:14:34;10.60;92.50
48575;DHT22;34352;51.084;3.712;2024-03-02T14:17:01;10.60;94.00
48575;DHT22;34352;51.084;3.712;2024-03-02T14:19:32;10.60;94.60
48575;DHT22;34352;51.084;3.712;2024-03-02T14:21:58;10.60;95.10
48575;DHT22;34352;51.084;3.712;2024-03-02T14:24:30;10.80;95.00
48575;DHT22;34352;51.084;3.712;2024-03-02T14:26:57;10.90;94.10
48575;DHT22;34352;51.084;3.712;2024-03-02T14:29:28;10.80;91.90
48575;DHT22;34352;51.084;3.712;2024-03-02T14:32:00;10.80;92.50
48575;DHT22;34352;51.084;3.712;2024-03-02T14:34:31;10.80;93.00
48575;DHT22;34352;51.084;3.712;2024-03-02T14:37:04;10.70;92.50
48575;DHT22;34352;51.084;3.712;2024-03-02T14:39:30;10.70;92.10
48575;DHT22;34352;51.084;3.712;2024-03-02T14:42:01;10.60;92.00
48575;DHT22;34352;51.084;3.712;2024-03-02T14:44:33;10.60;94.10
48575;DHT22;34352;51.084;3.712;2024-03-02T14:47:04;10.70;95.50
48575;DHT22;34352;51.084;3.712;2024-03-02T14:49:30;10.80;96.30
48575;DHT22;34352;51.084;3.712;2024-03-02T14:51:58;10.60;94.40
48575;DHT22;34352;51.084;3.712;2024-03-02T14:54:24;10.60;94.50
48575;DHT22;34352;51.084;3.712;2024-03-02T14:56:49;10.50;94.90
48575;DHT22;34352;51.084;3.712;2024-03-02T14:59:16;10.60;95.80
48575;DHT22;34352;51.084;3.712;2024-03-02T15:01:44;10.60;96.60
48575;DHT22;34352;51.084;3.712;2024-03-02T15:04:14;10.60;96.70
48575;DHT22;34352;51.084;3.712;2024-03-02T15:06:50;10.70;97.10
48575;DHT22;34352;51.084;3.712;2024-03-02T15:09:47;10.80;96.40
48575;DHT22;34352;51.084;3.712;2024-03-02T15:12:17;10.80;95.90
48575;DHT22;34352;51.084;3.712;2024-03-02T15:14:49;10.80;94.30
48575;DHT22;34352;51.084;3.712;2024-03-02T15:17:20;10.70;94.60
48575;DHT22;34352;51.084;3.712;2024-03-02T15:19:49;10.70;96.10
48575;DHT22;34352;51.084;3.712;2024-03-02T15:22:16;10.80;95.50
48575;DHT22;34352;51.084;3.712;2024-03-02T15:24:44;10.70;93.70
48575;DHT22;34352;51.084;3.712;2024-03-02T15:27:23;10.70;93.60
48575;DHT22;34352;51.084;3.712;2024-03-02T15:30:04;10.70;94.30
48575;DHT22;34352;51.084;3.712;2024-03-02T15:32:31;10.60;94.50
48575;DHT22;34352;51.084;3.712;2024-03-02T15:35:03;10.70;95.20
48575;DHT22;34352;51.084;3.712;2024-03-02T15:37:29;10.60;94.60
48575;DHT22;34352;51.084;3.712;2024-03-02T15:39:55;11.00;94.80
48575;DHT22;34352;51.084;3.712;2024-03-02T15:42:21;10.70;95.40
48575;DHT22;34352;51.084;3.712;2024-03-02T15:44:49;10.80;95.10
48575;DHT22;34352;51.084;3.712;2024-03-02T15:47:21;10.80;93.30
48575;DHT22;34352;51.084;3.712;2024-03-02T15:49:49;10.70;93.60
48575;DHT22;34352;51.084;3.712;2024-03-02T15:52:16;10.80;93.10
48575;DHT22;34352;51.084;3.712;2024-03-02T15:54:48;11.00;90.90
48575;DHT22;34352;51.084;3.712;2024-03-02T15:57:19;11.00;89.20
48575;DHT22;34352;51.084;3.712;2024-03-02T15:59:45;11.00;81.70
48575;DHT22;34352;51.084;3.712;2024-03-02T16:02:11;11.00;80.20
48575;DHT22;34352;51.084;3.712;2024-03-02T16:04:37;11.10;79.60
48575;DHT22;34352;51.084;3.712;2024-03-02T16:07:03;11.10;77.50
48575;DHT22;34352;51.084;3.712;2024-03-02T16:09:29;11.10;77.00
48575;DHT22;34352;51.084;3.712;2024-03-02T16:11:57;11.10;77.60
48575;DHT22;34352;51.084;3.712;2024-03-02T16:14:24;11.10;73.30
48575;DHT22;34352;51.084;3.712;2024-03-02T16:16:50;11.20;69.30
48575;DHT22;34352;51.084;3.712;2024-03-02T16:19:15;11.10;69.70
48575;DHT22;34352;51.084;3.712;2024-03-02T16:21:56;11.10;70.00
48575;DHT22;34352;51.084;3.712;2024-03-02T16:24:22;11.10;67.80
48575;DHT22;34352;51.084;3.712;2024-03-02T16:30:10;11.10;69.00
48575;DHT22;34352;51.084;3.712;2024-03-02T16:32:47;11.00;70.40
48575;DHT22;34352;51.084;3.712;2024-03-02T16:35:20;11.00;70.90
48575;DHT22;34352;51.084;3.712;2024-03-02T16:41:26;11.00;70.60
48575;DHT22;34352;51.084;3.712;2024-03-02T16:43:59;11.00;66.20
48575;DHT22;34352;51.084;3.712;2024-03-02T16:46:29;10.90;66.90
48575;DHT22;34352;51.084;3.712;2024-03-02T16:48:57;11.00;64.80
48575;DHT22;34352;51.084;3.712;2024-03-02T16:51:41;10.90;67.50
48575;DHT22;34352;51.084;3.712;2024-03-02T16:54:09;10.90;68.70
48575;DHT22;34352;51.084;3.712;2024-03-02T16:56:42;10.90;69.20
48575;DHT22;34352;51.084;3.712;2024-03-02T16:59:21;10.90;68.70
48575;DHT22;34352;51.084;3.712;2024-03-02T17:01:49;10.80;69.50
48575;DHT22;34352;51.084;3.712;2024-03-02T17:04:14;11.00;68.20
48575;DHT22;34352;51.084;3.712;2024-03-02T17:06:48;11.00;68.80
48575;DHT22;34352;51.084;3.712;2024-03-02T17:12:25;10.90;70.90
48575;DHT22;34352;51.084;3.712;2024-03-02T17:14:57;10.80;75.60
48575;DHT22;34352;51.084;3.712;2024-03-02T17:17:34;10.80;78.30
48575;DHT22;34352;51.084;3.712;2024-03-02T17:20:06;10.70;79.70
48575;DHT22;34352;51.084;3.712;2024-03-02T17:22:56;10.70;82.10
48575;DHT22;34352;51.084;3.712;2024-03-02T17:25:29;10.70;82.90
48575;DHT22;34352;51.084;3.712;2024-03-02T17:28:28;10.70;84.30
48575;DHT22;34352;51.084;3.712;2024-03-02T17:30:55;10.50;87.00
48575;DHT22;34352;51.084;3.712;2024-03-02T17:33:39;10.40;89.90
48575;DHT22;34352;51.084;3.712;2024-03-02T17:36:12;10.30;91.70
48575;DHT22;34352;51.084;3.712;2024-03-02T17:38:44;10.20;93.70
48575;DHT22;34352;51.084;3.712;2024-03-02T17:41:47;10.20;94.00
48575;DHT22;34352;51.084;3.712;2024-03-02T17:49:51;9.70;93.50
48575;DHT22;34352;51.084;3.712;2024-03-02T17:55:28;9.50;99.40
48575;DHT22;34352;51.084;3.712;2024-03-02T17:57:59;8.90;99.90
48575;DHT22;34352;51.084;3.712;2024-03-02T18:04:13;9.10;99.90
48575;DHT22;34352;51.084;3.712;2024-03-02T18:15:39;8.90;99.60
48575;DHT22;34352;51.084;3.712;2024-03-02T18:18:21;8.90;99.90
48575;DHT22;34352;51.084;3.712;2024-03-02T18:20:47;8.80;99.90
48575;DHT22;34352;51.084;3.712;2024-03-02T18:23:17;9.00;99.90
48575;DHT22;34352;51.084;3.712;2024-03-02T18:25:50;9.00;99.90
48575;DHT22;34352;51.084;3.712;2024-03-02T18:28:17;9.00;99.90
48575;DHT22;34352;51.084;3.712;2024-03-02T18:30:44;9.00;99.90
48575;DHT22;34352;51.084;3.712;2024-03-02T18:33:20;9.10;99.90
48575;DHT22;34352;51.084;3.712;2024-03-02T18:35:47;9.10;99.90
48575;DHT22;34352;51.084;3.712;2024-03-02T18:38:16;9.20;99.90
48575;DHT22;34352;51.084;3.712;2024-03-02T18:40:52;9.20;99.90
48575;DHT22;34352;51.084;3.712;2024-03-02T18:43:38;9.20;99.90
48575;DHT22;34352;51.084;3.712;2024-03-02T18:46:10;9.20;99.90
48575;DHT22;34352;51.084;3.712;2024-03-02T18:51:38;9.20;99.80
48575;DHT22;34352;51.084;3.712;2024-03-02T18:54:13;9.40;99.50
48575;DHT22;34352;51.084;3.712;2024-03-02T19:00:04;9.30;97.30
48575;DHT22;34352;51.084;3.712;2024-03-02T19:02:47;9.20;98.70
48575;DHT22;34352;51.084;3.712;2024-03-02T19:05:13;9.20;99.40
48575;DHT22;34352;51.084;3.712;2024-03-02T19:07:45;9.20;99.60
48575;DHT22;34352;51.084;3.712;2024-03-02T19:13:32;9.20;99.60
48575;DHT22;34352;51.084;3.712;2024-03-02T19:16:17;9.30;99.90
48575;DHT22;34352;51.084;3.712;2024-03-02T19:18:52;9.30;98.90
48575;DHT22;34352;51.084;3.712;2024-03-02T19:21:44;9.30;99.40
48575;DHT22;34352;51.084;3.712;2024-03-02T19:24:30;9.30;99.50
48575;DHT22;34352;51.084;3.712;2024-03-02T19:26:56;9.30;99.60
48575;DHT22;34352;51.084;3.712;2024-03-02T19:35:57;9.30;99.90
48575;DHT22;34352;51.084;3.712;2024-03-02T19:38:59;9.20;99.70
48575;DHT22;34352;51.084;3.712;2024-03-02T19:41:25;9.10;99.90
48575;DHT22;34352;51.084;3.712;2024-03-02T19:43:52;9.40;98.60
48575;DHT22;34352;51.084;3.712;2024-03-02T19:46:23;9.40;95.90
48575;DHT22;34352;51.084;3.712;2024-03-02T19:48:49;9.10;97.40
48575;DHT22;34352;51.084;3.712;2024-03-02T19:51:32;9.10;98.40
48575;DHT22;34352;51.084;3.712;2024-03-02T19:54:03;9.10;99.60
48575;DHT22;34352;51.084;3.712;2024-03-02T19:56:53;9.10;99.60
48575;DHT22;34352;51.084;3.712;2024-03-02T19:59:29;9.10;99.90
48575;DHT22;34352;51.084;3.712;2024-03-02T20:02:09;9.10;99.90
48575;DHT22;34352;51.084;3.712;2024-03-02T20:04:54;9.30;99.30
48575;DHT22;34352;51.084;3.712;2024-03-02T20:07:22;9.20;98.70
48575;DHT22;34352;51.084;3.712;2024-03-02T20:09:49;9.10;99.20
48575;DHT22;34352;51.084;3.712;2024-03-02T20:12:16;9.10;99.80
48575;DHT22;34352;51.084;3.712;2024-03-02T20:14:47;9.10;99.90
48575;DHT22;34352;51.084;3.712;2024-03-02T20:17:28;9.20;99.90
48575;DHT22;34352;51.084;3.712;2024-03-02T20:19:59;9.10;99.90
48575;DHT22;34352;51.084;3.712;2024-03-02T20:22:27;9.20;99.80
48575;DHT22;34352;51.084;3.712;2024-03-02T20:24:57;9.20;99.70
48575;DHT22;34352;51.084;3.712;2024-03-02T20:27:56;9.20;99.70
48575;DHT22;34352;51.084;3.712;2024-03-02T20:30:32;9.20;99.20
48575;DHT22;34352;51.084;3.712;2024-03-02T20:33:11;9.20;99.50
48575;DHT22;34352;51.084;3.712;2024-03-02T20:35:48;9.20;99.40
48575;DHT22;34352;51.084;3.712;2024-03-02T20:38:20;9.10;99.50
48575;DHT22;34352;51.084;3.712;2024-03-02T20:40:52;9.10;99.80
48575;DHT22;34352;51.084;3.712;2024-03-02T20:43:20;9.20;98.80
48575;DHT22;34352;51.084;3.712;2024-03-02T20:45:56;9.00;98.40
48575;DHT22;34352;51.084;3.712;2024-03-02T20:48:24;9.00;99.30
48575;DHT22;34352;51.084;3.712;2024-03-02T20:50:55;8.90;98.40
48575;DHT22;34352;51.084;3.712;2024-03-02T20:53:27;8.80;97.60
48575;DHT22;34352;51.084;3.712;2024-03-02T20:58:25;8.80;98.00
48575;DHT22;34352;51.084;3.712;2024-03-02T21:00:54;8.70;98.00
48575;DHT22;34352;51.084;3.712;2024-03-02T21:03:35;8.70;98.50
48575;DHT22;34352;51.084;3.712;2024-03-02T21:06:16;8.70;99.10
48575;DHT22;34352;51.084;3.712;2024-03-02T21:08:43;8.70;99.20
48575;DHT22;34352;51.084;3.712;2024-03-02T21:11:11;8.60;99.80
48575;DHT22;34352;51.084;3.712;2024-03-02T21:13:39;8.70;99.90
48575;DHT22;34352;51.084;3.712;2024-03-02T21:16:10;8.50;99.90
48575;DHT22;34352;51.084;3.712;2024-03-02T21:18:44;8.60;99.90
48575;DHT22;34352;51.084;3.712;2024-03-02T21:21:10;8.70;99.70
48575;DHT22;34352;51.084;3.712;2024-03-02T21:28:46;8.30;97.80
48575;DHT22;34352;51.084;3.712;2024-03-02T21:42:43;8.40;99.90
48575;DHT22;34352;51.084;3.712;2024-03-02T21:45:15;8.30;99.50
48575;DHT22;34352;51.084;3.712;2024-03-02T21:47:49;8.30;99.90
48575;DHT22;34352;51.084;3.712;2024-03-02T21:50:15;8.20;99.90
48575;DHT22;34352;51.084;3.712;2024-03-02T21:53:09;8.40;99.90
48575;DHT22;34352;51.084;3.712;2024-03-02T21:58:49;8.40;99.90
48575;DHT22;34352;51.084;3.712;2024-03-02T22:09:40;8.20;98.70
48575;DHT22;34352;51.084;3.712;2024-03-02T22:12:09;8.00;99.90
48575;DHT22;34352;51.084;3.712;2024-03-02T22:14:47;7.90;99.90
48575;DHT22;34352;51.084;3.712;2024-03-02T22:20:56;8.30;99.90
48575;DHT22;34352;51.084;3.712;2024-03-02T23:06:09;8.00;99.90
48575;DHT22;34352;51.084;3.712;2024-03-02T23:08:54;7.90;99.90
48575;DHT22;34352;51.084;3.712;2024-03-02T23:11:39;8.00;99.90
48575;DHT22;34352;51.084;3.712;2024-03-02T23:14:17;8.00;99.90
48575;DHT22;34352;51.084;3.712;2024-03-02T23:16:57;8.00;99.90
48575;DHT22;34352;51.084;3.712;2024-03-02T23:19:35;8.10;99.90
48575;DHT22;34352;51.084;3.712;2024-03-02T23:22:04;8.30;99.90
48575;DHT22;34352;51.084;3.712;2024-03-02T23:24:34;8.20;99.90
48575;DHT22;34352;51.084;3.712;2024-03-02T23:27:36;8.20;99.90
48575;DHT22;34352;51.084;3.712;2024-03-02T23:30:19;8.20;99.90
48575;DHT22;34352;51.084;3.712;2024-03-02T23:32:56;8.20;99.90
48575;DHT22;34352;51.084;3.712;2024-03-02T23:35:42;8.20;99.90
48575;DHT22;34352;51.084;3.712;2024-03-02T23:38:09;8.10;99.90
48575;DHT22;34352;51.084;3.712;2024-03-02T23:40:37;8.20;99.90
48575;DHT22;34352;51.084;3.712;2024-03-02T23:43:05;8.20;99.90
48575;DHT22;34352;51.084;3.712;2024-03-02T23:45:35;8.20;99.90
48575;DHT22;34352;51.084;3.712;2024-03-02T23:48:02;8.10;99.90
48575;DHT22;34352;51.084;3.712;2024-03-02T23:54:25;8.10;99.90
48575;DHT22;34352;51.084;3.712;2024-03-02T23:56:53;8.00;99.90
48575;DHT22;34352;51.084;3.712;2024-03-02T23:59:39;8.00;99.90
